createdAt,value
2022-12-07T00:01:48.422Z,86.57
2022-12-07T00:04:18.645Z,85.89
2022-12-07T00:06:51.319Z,85.67
2022-12-07T00:09:19.489Z,85.81
2022-12-07T00:11:52.686Z,85.72
2022-12-07T00:14:20.553Z,85.91
2022-12-07T00:16:52.174Z,85.97
2022-12-07T00:19:19.676Z,85.81
2022-12-07T00:21:46.817Z,85.41
2022-12-07T00:24:16.212Z,85.34
2022-12-07T00:26:45.620Z,85.38
2022-12-07T00:29:22.886Z,85.36
2022-12-07T00:31:50.355Z,85.31
2022-12-07T00:34:22.871Z,85.44
2022-12-07T00:36:50.968Z,85.11
2022-12-07T00:39:18.264Z,85.62
2022-12-07T00:41:45.419Z,85.67
2022-12-07T00:44:13.078Z,85.86
2022-12-07T00:46:40.191Z,85.97
2022-12-07T00:49:09.273Z,85.95
2022-12-07T00:51:36.797Z,85.15
2022-12-07T00:54:03.956Z,84.90
2022-12-07T00:56:33.634Z,85.34
2022-12-07T00:59:03.653Z,85.96
2022-12-07T01:01:36.200Z,86.63
2022-12-07T01:04:04.255Z,85.91
2022-12-07T01:06:31.918Z,86.21
2022-12-07T01:08:59.772Z,85.85
2022-12-07T01:11:31.837Z,86.42
2022-12-07T01:14:01.640Z,85.97
2022-12-07T01:16:32.118Z,85.47
2022-12-07T01:19:01.341Z,85.65
2022-12-07T01:21:35.913Z,85.78
2022-12-07T01:24:05.202Z,85.68
2022-12-07T01:26:34.807Z,85.29
2022-12-07T01:29:02.096Z,85.55
2022-12-07T01:31:30.605Z,86.18
2022-12-07T01:34:02.667Z,86.70
2022-12-07T01:36:36.523Z,86.48
2022-12-07T01:39:08.158Z,86.59
2022-12-07T01:41:41.436Z,86.38
2022-12-07T01:44:27.445Z,85.91
2022-12-07T01:47:03.572Z,85.88
2022-12-07T01:49:39.348Z,85.40
2022-12-07T01:52:32.619Z,85.81
2022-12-07T01:55:05.710Z,86.17
2022-12-07T01:57:38.191Z,86.00
2022-12-07T02:00:13.795Z,85.69
2022-12-07T02:03:08.715Z,86.38
2022-12-07T02:05:38.063Z,86.19
2022-12-07T02:08:08.481Z,86.62
2022-12-07T02:10:36.013Z,86.58
2022-12-07T02:13:07.780Z,87.13
2022-12-07T02:15:55.065Z,86.94
2022-12-07T02:19:03.246Z,87.06
2022-12-07T02:22:03.835Z,86.95
2022-12-07T02:24:53.786Z,87.95
2022-12-07T02:27:57.771Z,87.84
2022-12-07T02:30:32.322Z,88.41
2022-12-07T02:33:42.861Z,88.45
2022-12-07T02:36:22.189Z,88.33
2022-12-07T02:39:04.286Z,87.66
2022-12-07T02:41:46.569Z,88.23
2022-12-07T02:44:19.046Z,87.43
2022-12-07T02:47:02.641Z,88.56
2022-12-07T02:49:33.772Z,88.16
2022-12-07T02:52:01.413Z,87.49
2022-12-07T02:54:30.964Z,87.89
2022-12-07T02:57:40.142Z,87.53
2022-12-07T03:00:18.973Z,86.69
2022-12-07T03:03:05.568Z,86.73
2022-12-07T03:05:58.406Z,86.86
2022-12-07T03:09:08.917Z,86.36
2022-12-07T03:11:50.818Z,86.64
2022-12-07T03:14:37.843Z,87.18
2022-12-07T03:17:17.640Z,86.70
2022-12-07T03:19:47.950Z,86.14
2022-12-07T03:22:19.580Z,86.58
2022-12-07T03:25:04.011Z,86.15
2022-12-07T03:27:57.064Z,86.13
2022-12-07T03:30:59.787Z,86.08
2022-12-07T03:33:43.474Z,86.19
2022-12-07T03:36:22.968Z,86.53
2022-12-07T03:39:34.247Z,86.30
2022-12-07T03:42:05.374Z,85.97
2022-12-07T03:44:34.459Z,85.51
2022-12-07T03:47:41.081Z,85.27
2022-12-07T03:50:27.316Z,85.97
2022-12-07T03:53:12.629Z,85.53
2022-12-07T03:55:45.055Z,86.10
2022-12-07T03:58:20.124Z,85.70
2022-12-07T04:00:47.472Z,86.09
2022-12-07T04:03:14.811Z,85.57
2022-12-07T04:05:43.480Z,85.32
2022-12-07T04:08:13.316Z,84.85
2022-12-07T04:10:43.577Z,85.47
2022-12-07T04:13:12.130Z,84.92
2022-12-07T04:15:39.292Z,84.97
2022-12-07T04:18:06.642Z,84.41
2022-12-07T04:20:33.812Z,83.96
2022-12-07T04:23:02.817Z,84.27
2022-12-07T04:25:30.094Z,84.04
2022-12-07T04:27:57.237Z,85.61
2022-12-07T04:30:24.451Z,84.27
2022-12-07T04:32:51.485Z,84.47
2022-12-07T04:35:21.007Z,84.42
2022-12-07T04:37:49.752Z,83.93
2022-12-07T04:40:18.001Z,84.20
2022-12-07T04:42:47.821Z,83.62
2022-12-07T04:45:15.010Z,83.01
2022-12-07T04:47:42.073Z,83.66
2022-12-07T04:50:11.265Z,83.81
2022-12-07T04:52:42.076Z,83.68
2022-12-07T04:55:10.069Z,83.36
2022-12-07T04:57:37.336Z,84.14
2022-12-07T05:00:05.411Z,83.80
2022-12-07T05:02:32.890Z,83.81
2022-12-07T05:05:00.066Z,83.01
2022-12-07T05:07:27.109Z,82.71
2022-12-07T05:09:54.252Z,82.54
2022-12-07T05:12:21.393Z,82.40
2022-12-07T05:14:50.763Z,81.90
2022-12-07T05:17:18.052Z,82.32
2022-12-07T05:19:45.194Z,83.25
2022-12-07T05:22:12.337Z,82.59
2022-12-07T05:24:39.385Z,82.73
2022-12-07T05:27:08.907Z,82.15
2022-12-07T05:29:38.242Z,82.42
2022-12-07T05:32:05.631Z,82.61
2022-12-07T05:34:35.718Z,82.94
2022-12-07T05:37:02.822Z,83.50
2022-12-07T05:39:29.871Z,83.19
2022-12-07T05:42:15.060Z,83.03
2022-12-07T05:44:47.305Z,83.32
2022-12-07T05:47:15.524Z,83.56
2022-12-07T05:49:42.719Z,82.95
2022-12-07T05:52:10.014Z,83.23
2022-12-07T05:54:37.191Z,83.03
2022-12-07T05:57:04.315Z,83.00
2022-12-07T05:59:31.450Z,82.64
2022-12-07T06:02:03.828Z,83.37
2022-12-07T06:04:38.503Z,83.50
2022-12-07T06:07:09.130Z,83.90
2022-12-07T06:09:36.913Z,83.95
2022-12-07T06:12:28.970Z,84.70
2022-12-07T06:14:56.011Z,84.33
2022-12-07T06:17:23.213Z,84.12
2022-12-07T06:19:52.513Z,84.26
2022-12-07T06:22:19.699Z,84.21
2022-12-07T06:24:46.831Z,84.02
2022-12-07T06:27:14.656Z,83.61
2022-12-07T06:29:41.691Z,83.79
2022-12-07T06:32:08.908Z,84.64
2022-12-07T06:34:36.584Z,85.42
2022-12-07T06:37:06.008Z,84.59
2022-12-07T06:39:33.114Z,84.78
2022-12-07T06:42:00.321Z,84.56
2022-12-07T06:44:27.749Z,84.25
2022-12-07T06:47:12.328Z,84.48
2022-12-07T06:49:42.217Z,84.76
2022-12-07T06:52:14.102Z,85.19
2022-12-07T06:54:41.179Z,84.75
2022-12-07T06:57:08.221Z,84.36
2022-12-07T06:59:35.202Z,84.55
2022-12-07T07:02:02.356Z,84.10
2022-12-07T07:04:29.424Z,84.18
2022-12-07T07:07:00.039Z,83.88
2022-12-07T07:09:27.529Z,83.45
2022-12-07T07:11:54.587Z,84.00
2022-12-07T07:14:22.350Z,83.80
2022-12-07T07:16:49.403Z,83.50
2022-12-07T07:19:16.506Z,82.33
2022-12-07T07:21:43.549Z,83.50
2022-12-07T07:24:10.708Z,82.80
2022-12-07T07:26:37.747Z,82.44
2022-12-07T07:29:05.015Z,81.79
2022-12-07T07:31:32.122Z,81.24
2022-12-07T07:33:59.202Z,81.56
2022-12-07T07:36:26.282Z,81.34
2022-12-07T07:38:53.761Z,81.46
2022-12-07T07:41:20.912Z,80.38
2022-12-07T07:43:47.918Z,79.36
2022-12-07T07:46:15.063Z,79.41
2022-12-07T07:48:43.727Z,77.80
2022-12-07T07:51:10.898Z,79.03
2022-12-07T07:53:37.968Z,78.62
2022-12-07T07:56:05.302Z,78.15
2022-12-07T07:58:34.845Z,77.62
2022-12-07T08:01:08.955Z,77.58
2022-12-07T08:03:36.669Z,77.66
2022-12-07T08:06:07.316Z,78.54
2022-12-07T08:08:34.383Z,77.56
2022-12-07T08:11:02.531Z,78.13
2022-12-07T08:13:31.513Z,78.24
2022-12-07T08:15:59.956Z,78.99
2022-12-07T08:18:27.065Z,79.03
2022-12-07T08:21:04.171Z,77.87
2022-12-07T08:23:39.437Z,78.53
2022-12-07T08:26:17.855Z,78.08
2022-12-07T08:28:46.145Z,77.95
2022-12-07T08:31:17.631Z,78.57
2022-12-07T08:33:48.246Z,79.25
2022-12-07T08:36:16.107Z,79.51
2022-12-07T08:39:07.828Z,79.87
2022-12-07T08:41:33.428Z,80.38
2022-12-07T08:44:00.526Z,80.32
2022-12-07T08:46:41.452Z,80.91
2022-12-07T08:49:18.909Z,81.37
2022-12-07T08:51:48.682Z,81.37
2022-12-07T08:54:19.594Z,80.77
2022-12-07T08:56:51.783Z,80.98
2022-12-07T08:59:21.915Z,81.22
2022-12-07T09:01:48.992Z,80.71
2022-12-07T09:04:22.697Z,80.41
2022-12-07T09:06:50.181Z,80.31
2022-12-07T09:09:17.430Z,79.13
2022-12-07T09:11:46.327Z,78.40
2022-12-07T09:14:16.653Z,77.95
2022-12-07T09:16:43.725Z,76.61
2022-12-07T09:19:10.761Z,77.21
2022-12-07T09:21:37.803Z,78.00
2022-12-07T09:24:05.126Z,77.63
2022-12-07T09:26:32.252Z,77.09
2022-12-07T09:28:59.290Z,76.84
2022-12-07T09:31:29.474Z,77.32
2022-12-07T09:34:01.912Z,77.51
2022-12-07T09:36:30.119Z,78.34
2022-12-07T09:38:57.318Z,79.17
2022-12-07T09:41:29.543Z,78.38
2022-12-07T09:44:07.633Z,78.87
2022-12-07T09:46:42.953Z,79.04
2022-12-07T09:49:20.822Z,79.06
2022-12-07T09:51:49.265Z,78.45
2022-12-07T09:54:17.901Z,78.28
2022-12-07T09:56:48.108Z,79.49
2022-12-07T09:59:23.232Z,78.59
2022-12-07T10:01:51.814Z,79.57
2022-12-07T10:04:27.968Z,79.74
2022-12-07T10:06:55.203Z,80.40
2022-12-07T10:09:23.260Z,80.53
2022-12-07T10:12:19.775Z,80.19
2022-12-07T10:15:08.328Z,80.46
2022-12-07T10:17:51.460Z,79.66
2022-12-07T10:20:23.445Z,80.74
2022-12-07T10:23:14.475Z,80.54
2022-12-07T10:25:41.946Z,80.20
2022-12-07T10:28:08.856Z,80.05
2022-12-07T10:31:05.314Z,80.78
2022-12-07T10:33:40.111Z,80.97
2022-12-07T10:36:37.954Z,80.50
2022-12-07T10:39:20.625Z,79.63
2022-12-07T10:42:03.441Z,79.64
2022-12-07T10:44:34.172Z,80.51
2022-12-07T10:47:20.066Z,80.34
2022-12-07T10:49:58.573Z,79.10
2022-12-07T10:52:40.510Z,79.61
2022-12-07T10:55:25.761Z,79.86
2022-12-07T10:58:50.060Z,79.89
2022-12-07T11:02:08.303Z,80.28
2022-12-07T11:05:02.325Z,81.15
2022-12-07T11:07:58.204Z,81.75
2022-12-07T11:10:44.695Z,81.58
2022-12-07T11:13:39.446Z,81.20
2022-12-07T11:17:04.991Z,82.75
2022-12-07T11:20:20.977Z,81.89
2022-12-07T11:22:48.006Z,82.31
2022-12-07T11:25:45.236Z,82.59
2022-12-07T11:29:06.940Z,82.97
2022-12-07T11:31:51.851Z,84.03
2022-12-07T11:34:52.218Z,82.96
2022-12-07T11:40:38.227Z,83.53
2022-12-07T11:43:36.783Z,83.98
2022-12-07T11:46:17.203Z,83.81
2022-12-07T11:49:22.526Z,83.46
2022-12-07T11:51:56.650Z,83.18
2022-12-07T11:54:30.972Z,82.72
2022-12-07T11:57:05.241Z,82.74
2022-12-07T11:59:50.075Z,82.49
2022-12-07T12:02:25.373Z,81.77
2022-12-07T12:05:18.894Z,81.57
2022-12-07T12:11:11.065Z,80.93
2022-12-07T12:16:57.739Z,80.47
2022-12-07T12:20:24.762Z,81.63
2022-12-07T12:23:16.010Z,81.74
2022-12-07T12:26:00.804Z,82.21
2022-12-07T12:28:34.773Z,82.46
2022-12-07T12:31:24.839Z,82.83
2022-12-07T12:34:01.450Z,82.77
2022-12-07T12:36:48.723Z,82.93
2022-12-07T12:39:20.132Z,83.52
2022-12-07T12:41:54.763Z,83.92
2022-12-07T12:44:30.674Z,83.82
2022-12-07T12:47:05.856Z,83.68
2022-12-07T12:49:46.693Z,83.81
2022-12-07T12:52:50.553Z,84.00
2022-12-07T12:55:22.407Z,83.28
2022-12-07T12:58:21.636Z,83.14
2022-12-07T13:01:09.989Z,83.31
2022-12-07T13:03:37.429Z,82.91
2022-12-07T13:06:25.338Z,83.65
2022-12-07T13:08:55.567Z,84.26
2022-12-07T13:11:41.535Z,83.44
2022-12-07T13:14:41.447Z,82.71
2022-12-07T13:17:33.476Z,82.87
2022-12-07T13:20:14.309Z,82.21
2022-12-07T13:22:50.955Z,82.25
2022-12-07T13:25:42.379Z,82.54
2022-12-07T13:28:19.473Z,82.14
2022-12-07T13:31:14.784Z,82.78
2022-12-07T13:33:46.503Z,82.75
2022-12-07T13:36:32.715Z,83.55
2022-12-07T13:39:23.716Z,83.01
2022-12-07T13:41:56.304Z,83.93
2022-12-07T13:44:24.654Z,83.90
2022-12-07T13:47:19.223Z,83.37
2022-12-07T13:49:56.441Z,83.69
2022-12-07T13:52:34.266Z,83.67
2022-12-07T13:55:07.456Z,84.74
2022-12-07T13:57:37.156Z,85.01
2022-12-07T14:00:19.122Z,84.39
2022-12-07T14:03:05.752Z,85.24
2022-12-07T14:05:36.812Z,84.03
2022-12-07T14:08:06.992Z,85.12
2022-12-07T14:10:37.490Z,84.27
2022-12-07T14:13:36.709Z,84.65
2022-12-07T14:16:24.270Z,84.73
2022-12-07T14:18:51.533Z,85.11
2022-12-07T14:21:25.405Z,84.75
2022-12-07T14:24:21.518Z,85.22
2022-12-07T14:26:51.610Z,85.75
2022-12-07T14:29:28.270Z,84.80
2022-12-07T14:31:55.909Z,85.00
2022-12-07T14:34:23.659Z,85.53
2022-12-07T14:36:51.608Z,85.55
2022-12-07T14:39:18.715Z,85.92
2022-12-07T14:41:51.939Z,85.30
2022-12-07T14:44:28.028Z,85.28
2022-12-07T14:49:46.356Z,86.03
2022-12-07T14:55:27.912Z,85.77
2022-12-07T14:57:56.057Z,85.47
2022-12-07T15:00:26.590Z,85.72
2022-12-07T15:02:54.177Z,85.50
2022-12-07T15:05:31.173Z,85.36
2022-12-07T15:07:58.392Z,85.04
2022-12-07T15:10:32.865Z,85.01
2022-12-07T15:13:21.331Z,84.74
2022-12-07T15:15:50.905Z,85.69
2022-12-07T15:18:19.251Z,85.73
2022-12-07T15:20:48.497Z,85.39
2022-12-07T15:23:16.370Z,85.12
2022-12-07T15:25:49.433Z,84.99
2022-12-07T15:28:17.491Z,85.29
2022-12-07T15:30:48.551Z,84.63
2022-12-07T15:33:15.724Z,85.20
2022-12-07T15:35:45.125Z,85.18
2022-12-07T15:38:12.821Z,84.59
2022-12-07T15:40:40.279Z,84.45
2022-12-07T15:43:32.194Z,84.66
2022-12-07T15:46:00.444Z,84.61
2022-12-07T15:48:28.898Z,84.61
2022-12-07T15:51:10.051Z,84.85
2022-12-07T15:53:37.333Z,84.39
2022-12-07T15:56:08.952Z,84.58
2022-12-07T15:58:38.962Z,84.48
2022-12-07T16:01:18.474Z,84.31
2022-12-07T16:03:46.834Z,84.95
2022-12-07T16:06:18.069Z,84.15
2022-12-07T16:08:47.133Z,85.01
2022-12-07T16:11:15.050Z,84.72
2022-12-07T16:13:42.180Z,84.78
2022-12-07T16:16:13.983Z,84.48
2022-12-07T16:18:42.755Z,84.37
2022-12-07T16:21:12.365Z,83.71
2022-12-07T16:23:39.598Z,83.49
2022-12-07T16:26:14.849Z,84.10
2022-12-07T16:28:44.953Z,83.68
2022-12-07T16:31:20.009Z,83.34
2022-12-07T16:33:47.861Z,84.14
2022-12-07T16:36:39.925Z,83.91
2022-12-07T16:39:07.516Z,84.29
2022-12-07T16:41:34.519Z,84.47
2022-12-07T16:44:13.640Z,84.15
2022-12-07T16:46:41.769Z,84.10
2022-12-07T16:49:17.718Z,84.67
2022-12-07T16:51:44.976Z,84.66
2022-12-07T16:54:13.552Z,83.77
2022-12-07T16:56:41.251Z,84.44
2022-12-07T16:59:08.797Z,84.16
2022-12-07T17:01:37.056Z,84.25
2022-12-07T17:04:05.466Z,84.05
2022-12-07T17:06:32.937Z,84.42
2022-12-07T17:09:00.180Z,84.57
2022-12-07T17:11:34.427Z,83.80
2022-12-07T17:14:21.167Z,83.39
2022-12-07T17:16:48.333Z,83.92
2022-12-07T17:19:17.548Z,83.82
2022-12-07T17:21:45.015Z,84.09
2022-12-07T17:24:19.646Z,83.83
2022-12-07T17:26:47.997Z,84.48
2022-12-07T17:29:18.451Z,84.69
2022-12-07T17:31:51.238Z,84.68
2022-12-07T17:34:19.657Z,85.26
2022-12-07T17:36:48.100Z,84.73
2022-12-07T17:39:18.837Z,84.76
2022-12-07T17:42:04.690Z,84.67
2022-12-07T17:44:32.934Z,84.75
2022-12-07T17:47:02.586Z,84.15
2022-12-07T17:49:30.496Z,83.98
2022-12-07T17:52:16.344Z,84.09
2022-12-07T17:54:43.944Z,84.25
2022-12-07T17:57:11.106Z,83.88
2022-12-07T17:59:42.737Z,83.04
2022-12-07T18:02:10.737Z,83.33
2022-12-07T18:04:37.969Z,82.65
2022-12-07T18:07:06.838Z,82.50
2022-12-07T18:09:34.078Z,82.07
2022-12-07T18:12:01.599Z,81.34
2022-12-07T18:14:28.951Z,81.59
2022-12-07T18:16:58.409Z,81.41
2022-12-07T18:19:25.721Z,81.00
2022-12-07T18:21:53.042Z,81.18
2022-12-07T18:24:20.148Z,81.04
2022-12-07T18:26:49.769Z,81.52
2022-12-07T18:29:18.614Z,81.02
2022-12-07T18:31:49.850Z,81.68
2022-12-07T18:34:19.318Z,81.86
2022-12-07T18:36:50.405Z,82.12
2022-12-07T18:39:21.848Z,82.85
2022-12-07T18:41:49.015Z,82.49
2022-12-07T18:44:17.276Z,82.70
2022-12-07T18:46:44.622Z,82.91
2022-12-07T18:49:15.577Z,82.31
2022-12-07T18:51:43.506Z,82.53
2022-12-07T18:54:12.350Z,82.24
2022-12-07T18:56:39.453Z,82.60
2022-12-07T18:59:25.888Z,82.44
2022-12-07T19:01:54.968Z,82.28
2022-12-07T19:04:22.412Z,81.66
2022-12-07T19:06:50.550Z,81.56
2022-12-07T19:09:18.996Z,81.41
2022-12-07T19:11:52.819Z,81.97
2022-12-07T19:14:27.607Z,82.06
2022-12-07T19:16:59.052Z,81.55
2022-12-07T19:19:37.181Z,82.13
2022-12-07T19:22:06.234Z,81.28
2022-12-07T19:24:36.371Z,82.31
2022-12-07T19:27:05.965Z,82.25
2022-12-07T19:29:33.931Z,82.90
2022-12-07T19:32:03.423Z,83.09
2022-12-07T19:34:31.265Z,83.28
2022-12-07T19:36:58.815Z,82.92
2022-12-07T19:39:26.339Z,82.95
2022-12-07T19:41:53.432Z,82.90
2022-12-07T19:44:27.106Z,82.78
2022-12-07T19:47:04.037Z,82.91
2022-12-07T19:49:36.255Z,82.59
2022-12-07T19:52:08.132Z,83.17
2022-12-07T19:54:36.696Z,82.92
2022-12-07T19:57:07.532Z,82.32
2022-12-07T19:59:35.095Z,82.01
2022-12-07T20:02:04.840Z,82.67
2022-12-07T20:04:35.775Z,82.51
2022-12-07T20:07:03.510Z,83.09
2022-12-07T20:09:30.692Z,82.33
2022-12-07T20:12:16.576Z,82.33
2022-12-07T20:14:43.754Z,82.06
2022-12-07T20:17:13.708Z,81.63
2022-12-07T20:19:41.289Z,81.24
2022-12-07T20:22:08.962Z,81.31
2022-12-07T20:24:37.264Z,81.22
2022-12-07T20:27:05.606Z,80.90
2022-12-07T20:29:33.635Z,80.36
2022-12-07T20:32:01.202Z,79.88
2022-12-07T20:34:28.427Z,79.40
2022-12-07T20:36:55.914Z,79.87
2022-12-07T20:39:25.106Z,79.76
2022-12-07T20:42:11.370Z,79.33
2022-12-07T20:44:38.652Z,79.65
2022-12-07T20:47:07.294Z,79.33
2022-12-07T20:49:34.472Z,79.29
2022-12-07T20:52:01.848Z,78.84
2022-12-07T20:54:31.720Z,78.69
2022-12-07T20:56:58.937Z,79.07
2022-12-07T20:59:26.292Z,78.34
2022-12-07T21:01:53.503Z,78.78
2022-12-07T21:04:20.880Z,78.94
2022-12-07T21:06:48.042Z,78.89
2022-12-07T21:09:15.246Z,79.02
2022-12-07T21:11:42.375Z,78.95
2022-12-07T21:14:09.600Z,78.63
2022-12-07T21:16:36.637Z,78.64
2022-12-07T21:19:07.245Z,78.10
2022-12-07T21:21:39.165Z,77.21
2022-12-07T21:24:08.518Z,77.87
2022-12-07T21:26:36.679Z,77.35
2022-12-07T21:29:11.177Z,77.56
2022-12-07T21:31:39.310Z,77.46
2022-12-07T21:34:07.526Z,77.52
2022-12-07T21:36:35.569Z,77.63
2022-12-07T21:39:05.240Z,77.41
2022-12-07T21:41:35.755Z,77.82
2022-12-07T21:44:07.532Z,78.43
2022-12-07T21:46:40.752Z,78.15
2022-12-07T21:49:14.179Z,78.00
2022-12-07T21:51:44.267Z,78.27
2022-12-07T21:54:14.459Z,79.59
2022-12-07T21:56:42.956Z,79.41
2022-12-07T21:59:16.161Z,79.06
2022-12-07T22:01:47.371Z,78.83
2022-12-07T22:04:26.834Z,78.17
2022-12-07T22:06:57.226Z,78.45
2022-12-07T22:09:24.791Z,78.38
2022-12-07T22:11:52.197Z,77.64
2022-12-07T22:14:38.082Z,77.68
2022-12-07T22:17:05.314Z,77.54
2022-12-07T22:19:33.562Z,78.71
2022-12-07T22:22:00.721Z,78.35
2022-12-07T22:24:27.956Z,77.48
2022-12-07T22:26:55.087Z,77.75
2022-12-07T22:29:24.270Z,77.66
2022-12-07T22:31:53.932Z,77.79
2022-12-07T22:34:24.005Z,77.76
2022-12-07T22:36:51.302Z,78.12
2022-12-07T22:39:18.641Z,77.86
2022-12-07T22:41:48.200Z,78.53
2022-12-07T22:44:19.238Z,77.87
2022-12-07T22:46:47.073Z,77.85
2022-12-07T22:49:14.131Z,78.30
2022-12-07T22:51:41.995Z,78.15
2022-12-07T22:54:18.122Z,78.84
2022-12-07T22:56:45.652Z,78.77
2022-12-07T22:59:13.871Z,78.18
2022-12-07T23:01:41.174Z,78.48
2022-12-07T23:04:08.615Z,78.63
2022-12-07T23:06:41.395Z,78.50
2022-12-07T23:09:12.463Z,78.91
2022-12-07T23:12:01.348Z,78.50
2022-12-07T23:14:54.751Z,78.43
2022-12-07T23:17:22.142Z,78.24
2022-12-07T23:19:55.761Z,78.80
2022-12-07T23:22:26.521Z,79.25
2022-12-07T23:24:56.323Z,78.41
2022-12-07T23:27:25.902Z,78.67
2022-12-07T23:29:52.981Z,78.60
2022-12-07T23:32:20.012Z,78.29
2022-12-07T23:34:47.194Z,78.61
2022-12-07T23:37:14.321Z,78.85
2022-12-07T23:39:41.686Z,79.12
2022-12-07T23:42:08.811Z,78.57
2022-12-07T23:44:35.895Z,78.28
2022-12-07T23:47:05.457Z,77.55
2022-12-07T23:49:35.387Z,77.91
2022-12-07T23:52:02.515Z,76.61
2022-12-07T23:54:31.853Z,77.31
2022-12-07T23:56:59.198Z,77.13
2022-12-07T23:59:28.774Z,76.83
